sensor_id;sensor_type;location;lat;lon;timestamp;P1;durP1;ratioP1;P2;durP2;ratioP2
34481;SDS011;20720;48.886;9.388;2022-11-20T00:01:31;18.88;;;8.30;;
34481;SDS011;20720;48.886;9.388;2022-11-20T00:03:57;15.48;;;8.55;;
34481;SDS011;20720;48.886;9.388;2022-11-20T00:06:23;19.08;;;8.88;;
34481;SDS011;20720;48.886;9.388;2022-11-20T00:08:48;16.38;;;8.40;;
34481;SDS011;20720;48.886;9.388;2022-11-20T00:11:15;15.85;;;9.50;;
34481;SDS011;20720;48.886;9.388;2022-11-20T00:13:43;17.33;;;9.07;;
34481;SDS011;20720;48.886;9.388;2022-11-20T00:16:09;18.52;;;8.90;;
34481;SDS011;20720;48.886;9.388;2022-11-20T00:18:36;21.08;;;9.48;;
34481;SDS011;20720;48.886;9.388;2022-11-20T00:21:03;19.25;;;9.77;;
34481;SDS011;20720;48.886;9.388;2022-11-20T00:23:30;19.13;;;9.32;;
34481;SDS011;20720;48.886;9.388;2022-11-20T00:25:55;17.90;;;8.75;;
34481;SDS011;20720;48.886;9.388;2022-11-20T00:28:20;18.15;;;9.25;;
34481;SDS011;20720;48.886;9.388;2022-11-20T00:30:46;16.10;;;8.85;;
34481;SDS011;20720;48.886;9.388;2022-11-20T00:33:11;18.48;;;9.02;;
34481;SDS011;20720;48.886;9.388;2022-11-20T00:35:36;20.10;;;9.85;;
34481;SDS011;20720;48.886;9.388;2022-11-20T00:38:02;18.25;;;9.65;;
34481;SDS011;20720;48.886;9.388;2022-11-20T00:40:27;18.00;;;8.52;;
34481;SDS011;20720;48.886;9.388;2022-11-20T00:42:52;18.90;;;9.70;;
34481;SDS011;20720;48.886;9.388;2022-11-20T00:45:17;16.60;;;9.27;;
34481;SDS011;20720;48.886;9.388;2022-11-20T00:47:43;21.50;;;11.52;;
34481;SDS011;20720;48.886;9.388;2022-11-20T00:50:08;27.05;;;13.68;;
34481;SDS011;20720;48.886;9.388;2022-11-20T00:52:33;21.98;;;11.18;;
34481;SDS011;20720;48.886;9.388;2022-11-20T00:54:59;22.77;;;11.55;;
34481;SDS011;20720;48.886;9.388;2022-11-20T00:57:24;21.40;;;11.48;;
34481;SDS011;20720;48.886;9.388;2022-11-20T00:59:49;20.75;;;11.27;;
34481;SDS011;20720;48.886;9.388;2022-11-20T01:02:14;20.70;;;10.35;;
34481;SDS011;20720;48.886;9.388;2022-11-20T01:04:41;16.77;;;9.57;;
34481;SDS011;20720;48.886;9.388;2022-11-20T01:07:06;21.50;;;9.68;;
34481;SDS011;20720;48.886;9.388;2022-11-20T01:09:32;17.52;;;9.82;;
34481;SDS011;20720;48.886;9.388;2022-11-20T01:11:57;18.85;;;9.85;;
34481;SDS011;20720;48.886;9.388;2022-11-20T01:14:24;17.27;;;9.43;;
34481;SDS011;20720;48.886;9.388;2022-11-20T01:16:49;19.40;;;9.00;;
34481;SDS011;20720;48.886;9.388;2022-11-20T01:19:19;18.38;;;9.82;;
34481;SDS011;20720;48.886;9.388;2022-11-20T01:21:50;19.75;;;10.23;;
34481;SDS011;20720;48.886;9.388;2022-11-20T01:24:18;22.33;;;10.10;;
34481;SDS011;20720;48.886;9.388;2022-11-20T01:26:45;19.67;;;10.90;;
34481;SDS011;20720;48.886;9.388;2022-11-20T01:29:13;20.52;;;9.45;;
34481;SDS011;20720;48.886;9.388;2022-11-20T01:31:41;21.40;;;10.80;;
34481;SDS011;20720;48.886;9.388;2022-11-20T01:34:09;17.20;;;9.70;;
34481;SDS011;20720;48.886;9.388;2022-11-20T01:36:36;19.52;;;10.45;;
34481;SDS011;20720;48.886;9.388;2022-11-20T01:39:04;20.33;;;10.43;;
34481;SDS011;20720;48.886;9.388;2022-11-20T01:41:36;19.63;;;10.43;;
34481;SDS011;20720;48.886;9.388;2022-11-20T01:44:21;22.65;;;10.82;;
34481;SDS011;20720;48.886;9.388;2022-11-20T01:47:07;28.45;;;12.40;;
34481;SDS011;20720;48.886;9.388;2022-11-20T01:49:44;22.00;;;10.63;;
34481;SDS011;20720;48.886;9.388;2022-11-20T01:52:15;20.20;;;10.80;;
34481;SDS011;20720;48.886;9.388;2022-11-20T01:54:49;24.45;;;11.85;;
34481;SDS011;20720;48.886;9.388;2022-11-20T01:57:25;21.35;;;10.43;;
34481;SDS011;20720;48.886;9.388;2022-11-20T01:59:57;20.83;;;10.23;;
34481;SDS011;20720;48.886;9.388;2022-11-20T02:02:30;19.77;;;10.48;;
34481;SDS011;20720;48.886;9.388;2022-11-20T02:04:56;21.70;;;11.52;;
34481;SDS011;20720;48.886;9.388;2022-11-20T02:07:29;20.15;;;10.05;;
34481;SDS011;20720;48.886;9.388;2022-11-20T02:09:55;18.67;;;9.65;;
34481;SDS011;20720;48.886;9.388;2022-11-20T02:12:20;21.88;;;10.57;;
34481;SDS011;20720;48.886;9.388;2022-11-20T02:15:04;22.08;;;11.13;;
34481;SDS011;20720;48.886;9.388;2022-11-20T02:17:30;21.48;;;10.95;;
34481;SDS011;20720;48.886;9.388;2022-11-20T02:19:55;23.15;;;11.10;;
34481;SDS011;20720;48.886;9.388;2022-11-20T02:22:35;20.92;;;10.02;;
34481;SDS011;20720;48.886;9.388;2022-11-20T02:25:12;22.05;;;10.18;;
34481;SDS011;20720;48.886;9.388;2022-11-20T02:27:38;22.90;;;11.48;;
34481;SDS011;20720;48.886;9.388;2022-11-20T02:30:04;21.08;;;10.93;;
34481;SDS011;20720;48.886;9.388;2022-11-20T02:32:35;23.47;;;11.30;;
34481;SDS011;20720;48.886;9.388;2022-11-20T02:35:38;20.63;;;10.18;;
34481;SDS011;20720;48.886;9.388;2022-11-20T02:37:54;18.77;;;10.32;;
34481;SDS011;20720;48.886;9.388;2022-11-20T02:40:22;22.33;;;10.45;;
34481;SDS011;20720;48.886;9.388;2022-11-20T02:42:51;17.15;;;9.18;;
34481;SDS011;20720;48.886;9.388;2022-11-20T02:45:17;18.88;;;10.27;;
34481;SDS011;20720;48.886;9.388;2022-11-20T02:47:43;18.00;;;9.60;;
34481;SDS011;20720;48.886;9.388;2022-11-20T02:50:08;18.80;;;9.48;;
34481;SDS011;20720;48.886;9.388;2022-11-20T02:52:33;22.25;;;10.02;;
34481;SDS011;20720;48.886;9.388;2022-11-20T02:54:58;13.43;;;8.07;;
34481;SDS011;20720;48.886;9.388;2022-11-20T02:57:24;16.33;;;8.10;;
34481;SDS011;20720;48.886;9.388;2022-11-20T02:59:49;9.85;;;5.82;;
34481;SDS011;20720;48.886;9.388;2022-11-20T03:02:14;9.98;;;6.10;;
34481;SDS011;20720;48.886;9.388;2022-11-20T03:04:39;8.23;;;5.50;;
34481;SDS011;20720;48.886;9.388;2022-11-20T03:07:05;7.63;;;5.07;;
34481;SDS011;20720;48.886;9.388;2022-11-20T03:09:30;7.50;;;4.72;;
34481;SDS011;20720;48.886;9.388;2022-11-20T03:11:56;8.50;;;4.40;;
34481;SDS011;20720;48.886;9.388;2022-11-20T03:14:21;8.15;;;4.25;;
34481;SDS011;20720;48.886;9.388;2022-11-20T03:16:46;6.75;;;4.57;;
34481;SDS011;20720;48.886;9.388;2022-11-20T03:19:12;7.25;;;4.50;;
34481;SDS011;20720;48.886;9.388;2022-11-20T03:21:37;5.05;;;3.38;;
34481;SDS011;20720;48.886;9.388;2022-11-20T03:24:03;5.60;;;3.55;;
34481;SDS011;20720;48.886;9.388;2022-11-20T03:26:28;4.38;;;2.45;;
34481;SDS011;20720;48.886;9.388;2022-11-20T03:28:55;4.50;;;2.70;;
34481;SDS011;20720;48.886;9.388;2022-11-20T03:31:23;5.68;;;2.50;;
34481;SDS011;20720;48.886;9.388;2022-11-20T03:33:53;5.63;;;2.80;;
34481;SDS011;20720;48.886;9.388;2022-11-20T03:36:18;4.40;;;3.10;;
34481;SDS011;20720;48.886;9.388;2022-11-20T03:38:45;4.68;;;2.30;;
34481;SDS011;20720;48.886;9.388;2022-11-20T03:41:15;5.35;;;2.60;;
34481;SDS011;20720;48.886;9.388;2022-11-20T03:43:46;4.40;;;2.40;;
34481;SDS011;20720;48.886;9.388;2022-11-20T03:46:19;3.70;;;2.22;;
34481;SDS011;20720;48.886;9.388;2022-11-20T03:48:45;3.10;;;2.10;;
34481;SDS011;20720;48.886;9.388;2022-11-20T03:51:17;5.07;;;2.50;;
34481;SDS011;20720;48.886;9.388;2022-11-20T03:53:45;3.42;;;2.20;;
34481;SDS011;20720;48.886;9.388;2022-11-20T03:56:12;4.22;;;2.35;;
34481;SDS011;20720;48.886;9.388;2022-11-20T03:58:39;3.75;;;2.10;;
34481;SDS011;20720;48.886;9.388;2022-11-20T04:01:18;3.50;;;2.33;;
34481;SDS011;20720;48.886;9.388;2022-11-20T04:03:45;6.25;;;2.55;;
34481;SDS011;20720;48.886;9.388;2022-11-20T04:06:15;3.88;;;2.63;;
34481;SDS011;20720;48.886;9.388;2022-11-20T04:08:42;5.25;;;2.80;;
34481;SDS011;20720;48.886;9.388;2022-11-20T04:11:09;4.93;;;2.83;;
34481;SDS011;20720;48.886;9.388;2022-11-20T04:13:37;10.02;;;2.60;;
34481;SDS011;20720;48.886;9.388;2022-11-20T04:16:02;4.90;;;2.40;;
34481;SDS011;20720;48.886;9.388;2022-11-20T04:18:28;3.67;;;2.55;;
34481;SDS011;20720;48.886;9.388;2022-11-20T04:20:53;3.83;;;2.58;;
34481;SDS011;20720;48.886;9.388;2022-11-20T04:23:18;5.90;;;2.70;;
34481;SDS011;20720;48.886;9.388;2022-11-20T04:25:44;5.22;;;2.55;;
34481;SDS011;20720;48.886;9.388;2022-11-20T04:28:09;5.65;;;2.95;;
34481;SDS011;20720;48.886;9.388;2022-11-20T04:30:35;4.35;;;2.90;;
34481;SDS011;20720;48.886;9.388;2022-11-20T04:33:00;5.93;;;2.78;;
34481;SDS011;20720;48.886;9.388;2022-11-20T04:35:25;5.40;;;2.65;;
34481;SDS011;20720;48.886;9.388;2022-11-20T04:37:51;3.50;;;2.55;;
34481;SDS011;20720;48.886;9.388;2022-11-20T04:40:17;5.95;;;2.92;;
34481;SDS011;20720;48.886;9.388;2022-11-20T04:42:42;4.63;;;2.40;;
34481;SDS011;20720;48.886;9.388;2022-11-20T04:45:08;4.43;;;2.42;;
34481;SDS011;20720;48.886;9.388;2022-11-20T04:47:34;4.35;;;2.38;;
34481;SDS011;20720;48.886;9.388;2022-11-20T04:49:59;5.07;;;2.28;;
34481;SDS011;20720;48.886;9.388;2022-11-20T04:52:25;4.10;;;2.17;;
34481;SDS011;20720;48.886;9.388;2022-11-20T04:54:50;7.88;;;2.70;;
34481;SDS011;20720;48.886;9.388;2022-11-20T04:57:17;3.72;;;2.08;;
34481;SDS011;20720;48.886;9.388;2022-11-20T04:59:43;5.18;;;2.50;;
34481;SDS011;20720;48.886;9.388;2022-11-20T05:02:08;4.63;;;2.30;;
34481;SDS011;20720;48.886;9.388;2022-11-20T05:04:34;3.70;;;2.50;;
34481;SDS011;20720;48.886;9.388;2022-11-20T05:06:59;4.53;;;2.45;;
34481;SDS011;20720;48.886;9.388;2022-11-20T05:09:24;3.10;;;2.13;;
34481;SDS011;20720;48.886;9.388;2022-11-20T05:11:49;5.07;;;2.47;;
34481;SDS011;20720;48.886;9.388;2022-11-20T05:14:14;4.13;;;2.20;;
34481;SDS011;20720;48.886;9.388;2022-11-20T05:16:40;4.85;;;2.30;;
34481;SDS011;20720;48.886;9.388;2022-11-20T05:19:05;6.32;;;2.72;;
34481;SDS011;20720;48.886;9.388;2022-11-20T05:21:30;3.38;;;2.03;;
34481;SDS011;20720;48.886;9.388;2022-11-20T05:23:57;3.78;;;2.28;;
34481;SDS011;20720;48.886;9.388;2022-11-20T05:26:22;7.68;;;3.80;;
34481;SDS011;20720;48.886;9.388;2022-11-20T05:28:48;3.40;;;2.33;;
34481;SDS011;20720;48.886;9.388;2022-11-20T05:31:15;5.82;;;2.78;;
34481;SDS011;20720;48.886;9.388;2022-11-20T05:33:43;4.22;;;2.40;;
34481;SDS011;20720;48.886;9.388;2022-11-20T05:36:10;3.08;;;1.85;;
34481;SDS011;20720;48.886;9.388;2022-11-20T05:38:37;5.20;;;2.58;;
34481;SDS011;20720;48.886;9.388;2022-11-20T05:41:04;5.95;;;2.70;;
34481;SDS011;20720;48.886;9.388;2022-11-20T05:43:37;4.57;;;2.60;;
34481;SDS011;20720;48.886;9.388;2022-11-20T05:46:04;5.25;;;2.78;;
34481;SDS011;20720;48.886;9.388;2022-11-20T05:48:31;4.60;;;2.45;;
34481;SDS011;20720;48.886;9.388;2022-11-20T05:51:00;5.22;;;2.47;;
34481;SDS011;20720;48.886;9.388;2022-11-20T05:53:26;6.63;;;2.40;;
34481;SDS011;20720;48.886;9.388;2022-11-20T05:56:02;5.80;;;2.42;;
34481;SDS011;20720;48.886;9.388;2022-11-20T05:58:30;5.65;;;2.35;;
34481;SDS011;20720;48.886;9.388;2022-11-20T06:01:04;3.85;;;2.22;;
34481;SDS011;20720;48.886;9.388;2022-11-20T06:03:33;3.78;;;2.15;;
34481;SDS011;20720;48.886;9.388;2022-11-20T06:05:59;4.68;;;2.28;;
34481;SDS011;20720;48.886;9.388;2022-11-20T06:08:26;4.72;;;2.40;;
34481;SDS011;20720;48.886;9.388;2022-11-20T06:10:51;3.88;;;2.30;;
34481;SDS011;20720;48.886;9.388;2022-11-20T06:13:17;4.93;;;2.60;;
34481;SDS011;20720;48.886;9.388;2022-11-20T06:15:42;3.78;;;2.28;;
34481;SDS011;20720;48.886;9.388;2022-11-20T06:18:13;4.65;;;2.30;;
34481;SDS011;20720;48.886;9.388;2022-11-20T06:20:38;3.92;;;2.28;;
34481;SDS011;20720;48.886;9.388;2022-11-20T06:23:03;3.47;;;1.88;;
34481;SDS011;20720;48.886;9.388;2022-11-20T06:25:29;5.00;;;2.83;;
34481;SDS011;20720;48.886;9.388;2022-11-20T06:27:54;6.20;;;3.25;;
34481;SDS011;20720;48.886;9.388;2022-11-20T06:30:19;11.45;;;4.20;;
34481;SDS011;20720;48.886;9.388;2022-11-20T06:32:45;6.35;;;2.85;;
34481;SDS011;20720;48.886;9.388;2022-11-20T06:35:10;4.43;;;2.70;;
34481;SDS011;20720;48.886;9.388;2022-11-20T06:37:36;4.85;;;2.50;;
34481;SDS011;20720;48.886;9.388;2022-11-20T06:40:01;3.47;;;2.25;;
34481;SDS011;20720;48.886;9.388;2022-11-20T06:42:26;5.05;;;2.40;;
34481;SDS011;20720;48.886;9.388;2022-11-20T06:44:51;3.80;;;2.42;;
34481;SDS011;20720;48.886;9.388;2022-11-20T06:47:17;3.50;;;2.00;;
34481;SDS011;20720;48.886;9.388;2022-11-20T06:49:42;3.65;;;1.77;;
34481;SDS011;20720;48.886;9.388;2022-11-20T06:52:07;4.93;;;2.10;;
34481;SDS011;20720;48.886;9.388;2022-11-20T06:54:33;4.30;;;2.10;;
34481;SDS011;20720;48.886;9.388;2022-11-20T06:56:58;2.53;;;1.67;;
34481;SDS011;20720;48.886;9.388;2022-11-20T06:59:23;5.18;;;2.00;;
34481;SDS011;20720;48.886;9.388;2022-11-20T07:01:48;4.03;;;2.08;;
34481;SDS011;20720;48.886;9.388;2022-11-20T07:04:14;4.25;;;2.20;;
34481;SDS011;20720;48.886;9.388;2022-11-20T07:06:39;5.28;;;1.90;;
34481;SDS011;20720;48.886;9.388;2022-11-20T07:09:04;3.85;;;1.80;;
34481;SDS011;20720;48.886;9.388;2022-11-20T07:11:29;3.72;;;1.75;;
34481;SDS011;20720;48.886;9.388;2022-11-20T07:13:56;2.42;;;1.40;;
34481;SDS011;20720;48.886;9.388;2022-11-20T07:16:21;3.42;;;1.70;;
34481;SDS011;20720;48.886;9.388;2022-11-20T07:18:46;2.95;;;1.65;;
34481;SDS011;20720;48.886;9.388;2022-11-20T07:21:12;3.35;;;1.92;;
34481;SDS011;20720;48.886;9.388;2022-11-20T07:23:37;2.67;;;1.80;;
34481;SDS011;20720;48.886;9.388;2022-11-20T07:26:03;4.38;;;1.90;;
34481;SDS011;20720;48.886;9.388;2022-11-20T07:28:29;2.40;;;1.45;;
34481;SDS011;20720;48.886;9.388;2022-11-20T07:30:55;3.83;;;1.58;;
34481;SDS011;20720;48.886;9.388;2022-11-20T07:33:20;4.07;;;2.30;;
34481;SDS011;20720;48.886;9.388;2022-11-20T07:35:45;3.58;;;2.25;;
34481;SDS011;20720;48.886;9.388;2022-11-20T07:38:11;2.88;;;2.13;;
34481;SDS011;20720;48.886;9.388;2022-11-20T07:40:36;3.85;;;2.00;;
34481;SDS011;20720;48.886;9.388;2022-11-20T07:43:01;4.47;;;1.92;;
34481;SDS011;20720;48.886;9.388;2022-11-20T07:45:27;5.05;;;1.88;;
34481;SDS011;20720;48.886;9.388;2022-11-20T07:47:52;3.40;;;2.08;;
34481;SDS011;20720;48.886;9.388;2022-11-20T07:50:18;3.53;;;1.77;;
34481;SDS011;20720;48.886;9.388;2022-11-20T07:52:45;2.63;;;1.50;;
34481;SDS011;20720;48.886;9.388;2022-11-20T07:55:10;3.25;;;1.70;;
34481;SDS011;20720;48.886;9.388;2022-11-20T07:57:36;2.78;;;1.90;;
34481;SDS011;20720;48.886;9.388;2022-11-20T08:00:02;2.47;;;1.85;;
34481;SDS011;20720;48.886;9.388;2022-11-20T08:02:29;3.45;;;1.63;;
34481;SDS011;20720;48.886;9.388;2022-11-20T08:04:54;2.95;;;1.63;;
34481;SDS011;20720;48.886;9.388;2022-11-20T08:07:19;3.97;;;2.08;;
34481;SDS011;20720;48.886;9.388;2022-11-20T08:09:45;4.03;;;2.10;;
34481;SDS011;20720;48.886;9.388;2022-11-20T08:12:20;3.58;;;1.90;;
34481;SDS011;20720;48.886;9.388;2022-11-20T08:15:04;2.75;;;1.90;;
34481;SDS011;20720;48.886;9.388;2022-11-20T08:17:30;3.17;;;2.13;;
34481;SDS011;20720;48.886;9.388;2022-11-20T08:19:56;3.65;;;2.10;;
34481;SDS011;20720;48.886;9.388;2022-11-20T08:22:21;3.85;;;2.03;;
34481;SDS011;20720;48.886;9.388;2022-11-20T08:24:47;4.15;;;1.85;;
34481;SDS011;20720;48.886;9.388;2022-11-20T08:27:13;4.30;;;2.47;;
34481;SDS011;20720;48.886;9.388;2022-11-20T08:29:38;3.88;;;2.25;;
34481;SDS011;20720;48.886;9.388;2022-11-20T08:32:04;4.20;;;2.33;;
34481;SDS011;20720;48.886;9.388;2022-11-20T08:34:29;4.15;;;2.05;;
34481;SDS011;20720;48.886;9.388;2022-11-20T08:36:54;4.18;;;1.70;;
34481;SDS011;20720;48.886;9.388;2022-11-20T08:39:19;4.47;;;1.73;;
34481;SDS011;20720;48.886;9.388;2022-11-20T08:41:45;3.15;;;1.63;;
34481;SDS011;20720;48.886;9.388;2022-11-20T08:44:10;4.65;;;1.60;;
34481;SDS011;20720;48.886;9.388;2022-11-20T08:46:36;3.22;;;1.90;;
34481;SDS011;20720;48.886;9.388;2022-11-20T08:49:04;2.38;;;1.52;;
34481;SDS011;20720;48.886;9.388;2022-11-20T08:51:31;2.55;;;1.67;;
34481;SDS011;20720;48.886;9.388;2022-11-20T08:53:57;2.28;;;1.23;;
34481;SDS011;20720;48.886;9.388;2022-11-20T08:56:22;3.67;;;1.75;;
34481;SDS011;20720;48.886;9.388;2022-11-20T08:58:47;2.70;;;1.52;;
34481;SDS011;20720;48.886;9.388;2022-11-20T09:01:15;3.70;;;1.60;;
34481;SDS011;20720;48.886;9.388;2022-11-20T09:03:40;3.03;;;2.00;;
34481;SDS011;20720;48.886;9.388;2022-11-20T09:06:06;3.40;;;2.20;;
34481;SDS011;20720;48.886;9.388;2022-11-20T09:08:32;3.50;;;1.90;;
34481;SDS011;20720;48.886;9.388;2022-11-20T09:10:59;2.38;;;1.60;;
34481;SDS011;20720;48.886;9.388;2022-11-20T09:13:25;3.08;;;1.60;;
34481;SDS011;20720;48.886;9.388;2022-11-20T09:15:55;2.50;;;1.55;;
34481;SDS011;20720;48.886;9.388;2022-11-20T09:18:24;3.58;;;2.00;;
34481;SDS011;20720;48.886;9.388;2022-11-20T09:20:49;3.67;;;2.45;;
34481;SDS011;20720;48.886;9.388;2022-11-20T09:23:15;2.80;;;1.90;;
34481;SDS011;20720;48.886;9.388;2022-11-20T09:25:41;4.05;;;1.80;;
34481;SDS011;20720;48.886;9.388;2022-11-20T09:28:06;3.65;;;1.50;;
34481;SDS011;20720;48.886;9.388;2022-11-20T09:30:32;2.88;;;1.77;;
34481;SDS011;20720;48.886;9.388;2022-11-20T09:32:57;3.25;;;2.10;;
34481;SDS011;20720;48.886;9.388;2022-11-20T09:35:22;2.97;;;2.17;;
34481;SDS011;20720;48.886;9.388;2022-11-20T09:37:48;2.50;;;1.75;;
34481;SDS011;20720;48.886;9.388;2022-11-20T09:40:19;2.03;;;1.38;;
34481;SDS011;20720;48.886;9.388;2022-11-20T09:54:10;1.63;;;0.80;;
34481;SDS011;20720;48.886;9.388;2022-11-20T09:56:37;2.78;;;0.80;;
34481;SDS011;20720;48.886;9.388;2022-11-20T09:59:07;1.58;;;0.75;;
34481;SDS011;20720;48.886;9.388;2022-11-20T10:01:57;1.65;;;0.82;;
34481;SDS011;20720;48.886;9.388;2022-11-20T10:04:25;2.30;;;0.80;;
34481;SDS011;20720;48.886;9.388;2022-11-20T10:07:29;1.27;;;0.63;;
34481;SDS011;20720;48.886;9.388;2022-11-20T10:13:14;0.85;;;0.47;;
34481;SDS011;20720;48.886;9.388;2022-11-20T10:24:26;2.55;;;0.77;;
34481;SDS011;20720;48.886;9.388;2022-11-20T10:29:39;2.88;;;1.13;;
34481;SDS011;20720;48.886;9.388;2022-11-20T10:32:14;2.05;;;0.60;;
34481;SDS011;20720;48.886;9.388;2022-11-20T10:34:48;2.13;;;0.90;;
34481;SDS011;20720;48.886;9.388;2022-11-20T10:37:19;1.58;;;0.73;;
34481;SDS011;20720;48.886;9.388;2022-11-20T10:39:54;1.65;;;0.90;;
34481;SDS011;20720;48.886;9.388;2022-11-20T10:42:41;1.75;;;0.90;;
34481;SDS011;20720;48.886;9.388;2022-11-20T10:45:13;1.77;;;0.90;;
34481;SDS011;20720;48.886;9.388;2022-11-20T10:47:46;1.80;;;1.00;;
34481;SDS011;20720;48.886;9.388;2022-11-20T10:50:14;1.85;;;0.98;;
34481;SDS011;20720;48.886;9.388;2022-11-20T10:55:27;1.75;;;0.80;;
34481;SDS011;20720;48.886;9.388;2022-11-20T11:01:25;1.63;;;0.90;;
34481;SDS011;20720;48.886;9.388;2022-11-20T11:03:51;3.88;;;1.80;;
34481;SDS011;20720;48.886;9.388;2022-11-20T11:06:37;11.15;;;3.30;;
34481;SDS011;20720;48.886;9.388;2022-11-20T11:09:15;6.00;;;2.20;;
34481;SDS011;20720;48.886;9.388;2022-11-20T11:11:44;4.40;;;2.10;;
34481;SDS011;20720;48.886;9.388;2022-11-20T11:14:11;4.97;;;2.53;;
34481;SDS011;20720;48.886;9.388;2022-11-20T11:16:48;2.80;;;1.70;;
34481;SDS011;20720;48.886;9.388;2022-11-20T11:19:16;2.83;;;1.50;;
34481;SDS011;20720;48.886;9.388;2022-11-20T11:21:48;2.30;;;1.20;;
34481;SDS011;20720;48.886;9.388;2022-11-20T11:24:19;3.28;;;1.30;;
34481;SDS011;20720;48.886;9.388;2022-11-20T11:26:53;2.70;;;1.35;;
34481;SDS011;20720;48.886;9.388;2022-11-20T11:29:22;3.75;;;1.60;;
34481;SDS011;20720;48.886;9.388;2022-11-20T11:31:47;2.78;;;1.38;;
34481;SDS011;20720;48.886;9.388;2022-11-20T11:34:15;3.38;;;1.42;;
34481;SDS011;20720;48.886;9.388;2022-11-20T11:36:47;3.17;;;1.75;;
34481;SDS011;20720;48.886;9.388;2022-11-20T11:39:19;4.50;;;1.83;;
34481;SDS011;20720;48.886;9.388;2022-11-20T11:41:45;4.75;;;1.80;;
34481;SDS011;20720;48.886;9.388;2022-11-20T11:44:17;2.85;;;1.45;;
34481;SDS011;20720;48.886;9.388;2022-11-20T11:47:03;1.75;;;1.10;;
34481;SDS011;20720;48.886;9.388;2022-11-20T11:49:33;2.25;;;1.10;;
34481;SDS011;20720;48.886;9.388;2022-11-20T11:54:39;1.70;;;1.13;;
34481;SDS011;20720;48.886;9.388;2022-11-20T12:00:17;2.05;;;1.00;;
34481;SDS011;20720;48.886;9.388;2022-11-20T12:05:21;2.40;;;1.00;;
34481;SDS011;20720;48.886;9.388;2022-11-20T12:07:51;4.25;;;1.35;;
34481;SDS011;20720;48.886;9.388;2022-11-20T12:10:33;2.58;;;1.08;;
34481;SDS011;20720;48.886;9.388;2022-11-20T12:15:59;2.17;;;1.10;;
34481;SDS011;20720;48.886;9.388;2022-11-20T12:18:26;5.13;;;1.40;;
34481;SDS011;20720;48.886;9.388;2022-11-20T12:23:56;2.30;;;1.30;;
34481;SDS011;20720;48.886;9.388;2022-11-20T12:34:47;3.33;;;1.23;;
34481;SDS011;20720;48.886;9.388;2022-11-20T12:37:38;4.00;;;1.50;;
34481;SDS011;20720;48.886;9.388;2022-11-20T12:51:33;2.50;;;0.85;;
34481;SDS011;20720;48.886;9.388;2022-11-20T13:08:24;1.75;;;0.60;;
34481;SDS011;20720;48.886;9.388;2022-11-20T13:11:00;1.50;;;0.50;;
34481;SDS011;20720;48.886;9.388;2022-11-20T13:18:55;1.40;;;0.40;;
34481;SDS011;20720;48.886;9.388;2022-11-20T13:21:21;1.08;;;0.38;;
34481;SDS011;20720;48.886;9.388;2022-11-20T13:24:06;2.25;;;0.55;;
34481;SDS011;20720;48.886;9.388;2022-11-20T13:26:31;0.80;;;0.40;;
34481;SDS011;20720;48.886;9.388;2022-11-20T13:29:07;2.60;;;0.60;;
34481;SDS011;20720;48.886;9.388;2022-11-20T13:31:36;2.17;;;0.50;;
34481;SDS011;20720;48.886;9.388;2022-11-20T13:34:09;1.60;;;0.60;;
34481;SDS011;20720;48.886;9.388;2022-11-20T13:36:38;0.73;;;0.43;;
34481;SDS011;20720;48.886;9.388;2022-11-20T13:39:35;3.60;;;0.93;;
34481;SDS011;20720;48.886;9.388;2022-11-20T13:42:24;1.80;;;0.68;;
34481;SDS011;20720;48.886;9.388;2022-11-20T13:44:55;3.95;;;0.90;;
34481;SDS011;20720;48.886;9.388;2022-11-20T13:47:27;2.50;;;0.98;;
34481;SDS011;20720;48.886;9.388;2022-11-20T13:49:53;1.42;;;0.60;;
34481;SDS011;20720;48.886;9.388;2022-11-20T13:52:40;2.28;;;0.60;;
34481;SDS011;20720;48.886;9.388;2022-11-20T13:59:04;2.78;;;0.70;;
34481;SDS011;20720;48.886;9.388;2022-11-20T14:01:09;2.63;;;0.65;;
34481;SDS011;20720;48.886;9.388;2022-11-20T14:03:40;2.22;;;1.10;;
34481;SDS011;20720;48.886;9.388;2022-11-20T14:06:11;2.45;;;0.77;;
34481;SDS011;20720;48.886;9.388;2022-11-20T14:08:50;1.92;;;0.70;;
34481;SDS011;20720;48.886;9.388;2022-11-20T14:11:17;3.45;;;0.75;;
34481;SDS011;20720;48.886;9.388;2022-11-20T14:14:04;2.95;;;0.82;;
34481;SDS011;20720;48.886;9.388;2022-11-20T14:16:40;3.35;;;1.08;;
34481;SDS011;20720;48.886;9.388;2022-11-20T14:22:21;1.35;;;0.40;;
34481;SDS011;20720;48.886;9.388;2022-11-20T14:24:48;2.85;;;0.65;;
34481;SDS011;20720;48.886;9.388;2022-11-20T14:27:25;1.27;;;0.50;;
34481;SDS011;20720;48.886;9.388;2022-11-20T14:29:50;2.55;;;0.70;;
34481;SDS011;20720;48.886;9.388;2022-11-20T14:32:17;1.30;;;0.57;;
34481;SDS011;20720;48.886;9.388;2022-11-20T14:34:45;1.83;;;0.73;;
34481;SDS011;20720;48.886;9.388;2022-11-20T14:37:17;3.20;;;1.40;;
34481;SDS011;20720;48.886;9.388;2022-11-20T14:39:48;1.63;;;0.70;;
34481;SDS011;20720;48.886;9.388;2022-11-20T14:42:17;1.70;;;0.60;;
34481;SDS011;20720;48.886;9.388;2022-11-20T14:44:44;12.05;;;3.70;;
34481;SDS011;20720;48.886;9.388;2022-11-20T14:47:11;6.70;;;2.47;;
34481;SDS011;20720;48.886;9.388;2022-11-20T14:49:40;3.80;;;1.13;;
34481;SDS011;20720;48.886;9.388;2022-11-20T14:52:16;2.88;;;0.93;;
34481;SDS011;20720;48.886;9.388;2022-11-20T14:54:44;2.88;;;0.80;;
34481;SDS011;20720;48.886;9.388;2022-11-20T14:57:40;2.30;;;0.70;;
34481;SDS011;20720;48.886;9.388;2022-11-20T15:00:06;3.75;;;1.55;;
34481;SDS011;20720;48.886;9.388;2022-11-20T15:02:32;3.63;;;1.60;;
34481;SDS011;20720;48.886;9.388;2022-11-20T15:04:58;5.60;;;1.60;;
34481;SDS011;20720;48.886;9.388;2022-11-20T15:07:33;3.38;;;1.60;;
34481;SDS011;20720;48.886;9.388;2022-11-20T15:12:31;23.65;;;8.35;;
34481;SDS011;20720;48.886;9.388;2022-11-20T15:14:58;32.15;;;13.98;;
34481;SDS011;20720;48.886;9.388;2022-11-20T15:17:25;18.85;;;9.00;;
34481;SDS011;20720;48.886;9.388;2022-11-20T15:19:50;9.23;;;4.80;;
34481;SDS011;20720;48.886;9.388;2022-11-20T15:22:17;6.20;;;3.00;;
34481;SDS011;20720;48.886;9.388;2022-11-20T15:24:42;5.65;;;2.15;;
34481;SDS011;20720;48.886;9.388;2022-11-20T15:27:08;4.75;;;2.80;;
34481;SDS011;20720;48.886;9.388;2022-11-20T15:29:34;3.22;;;2.00;;
34481;SDS011;20720;48.886;9.388;2022-11-20T15:31:59;2.67;;;1.42;;
34481;SDS011;20720;48.886;9.388;2022-11-20T15:34:26;2.20;;;1.45;;
34481;SDS011;20720;48.886;9.388;2022-11-20T15:36:51;5.07;;;1.05;;
34481;SDS011;20720;48.886;9.388;2022-11-20T15:39:18;2.92;;;1.27;;
34481;SDS011;20720;48.886;9.388;2022-11-20T15:41:43;1.92;;;0.82;;
34481;SDS011;20720;48.886;9.388;2022-11-20T15:44:08;3.17;;;1.20;;
34481;SDS011;20720;48.886;9.388;2022-11-20T15:46:35;3.38;;;1.20;;
34481;SDS011;20720;48.886;9.388;2022-11-20T15:49:05;2.58;;;1.00;;
34481;SDS011;20720;48.886;9.388;2022-11-20T15:51:35;3.50;;;1.10;;
34481;SDS011;20720;48.886;9.388;2022-11-20T15:54:09;3.85;;;1.50;;
34481;SDS011;20720;48.886;9.388;2022-11-20T15:56:36;16.20;;;4.38;;
34481;SDS011;20720;48.886;9.388;2022-11-20T15:59:02;16.08;;;4.95;;
34481;SDS011;20720;48.886;9.388;2022-11-20T16:01:28;6.05;;;2.42;;
34481;SDS011;20720;48.886;9.388;2022-11-20T16:03:53;3.72;;;1.50;;
34481;SDS011;20720;48.886;9.388;2022-11-20T16:06:19;3.47;;;1.50;;
34481;SDS011;20720;48.886;9.388;2022-11-20T16:08:44;3.10;;;1.30;;
34481;SDS011;20720;48.886;9.388;2022-11-20T16:11:11;3.50;;;1.60;;
34481;SDS011;20720;48.886;9.388;2022-11-20T16:13:38;3.90;;;1.88;;
34481;SDS011;20720;48.886;9.388;2022-11-20T16:16:23;11.15;;;4.70;;
34481;SDS011;20720;48.886;9.388;2022-11-20T16:18:53;4.03;;;1.60;;
34481;SDS011;20720;48.886;9.388;2022-11-20T16:21:19;13.00;;;5.88;;
34481;SDS011;20720;48.886;9.388;2022-11-20T16:23:44;5.43;;;2.05;;
34481;SDS011;20720;48.886;9.388;2022-11-20T16:26:13;7.13;;;3.33;;